Time;durP1;ratioP1;P1;durP2;ratioP2;P2;SDS_P1;SDS_P2;PMS_P1;PMS_P2;Temp;Humidity;BMP_temperature;BMP_pressure;BME280_temperature;BME280_humidity;BME280_pressure;Samples;Min_cycle;Max_cycle;Signal;HPM_P1;HPM_P2
2024/01/10 00:00:37;;;;;;;17.45;14.00;;;19.70;49.80;;;;;;5022180;28;20393;-68
2024/01/10 00:03:03;;;;;;;20.95;16.08;;;19.70;49.70;;;;;;5025061;28;20057;-68
2024/01/10 00:05:28;;;;;;;19.45;14.30;;;19.70;49.80;;;;;;5023257;28;20045;-69
2024/01/10 00:07:54;;;;;;;18.58;14.52;;;19.60;49.80;;;;;;5025788;28;20038;-68
2024/01/10 00:10:21;;;;;;;22.55;15.88;;;19.60;49.70;;;;;;5004632;28;20029;-68
2024/01/10 00:12:47;;;;;;;19.08;14.73;;;19.60;49.80;;;;;;5024933;28;20068;-68
2024/01/10 00:15:12;;;;;;;18.75;14.00;;;19.60;49.90;;;;;;4987229;28;997012;-68
2024/01/10 00:17:40;;;;;;;21.60;14.45;;;19.60;50.00;;;;;;5025833;28;20543;-68
2024/01/10 00:20:06;;;;;;;18.30;14.13;;;19.50;49.90;;;;;;5024974;28;20036;-68
2024/01/10 00:22:32;;;;;;;18.05;14.43;;;19.50;50.00;;;;;;5025295;28;20026;-68
2024/01/10 00:24:58;;;;;;;18.48;14.15;;;19.50;50.00;;;;;;5018179;28;20028;-69
2024/01/10 00:27:23;;;;;;;20.00;14.75;;;19.40;49.90;;;;;;5024068;28;20033;-68
2024/01/10 00:29:51;;;;;;;18.75;13.93;;;19.50;50.10;;;;;;5024251;28;20181;-68
2024/01/10 00:32:16;;;;;;;19.58;14.95;;;19.40;49.90;;;;;;5019709;28;20033;-68
2024/01/10 00:34:41;;;;;;;20.60;15.48;;;19.40;50.10;;;;;;5023742;28;20029;-69
2024/01/10 00:37:07;;;;;;;16.92;13.63;;;19.40;50.00;;;;;;5021547;28;20109;-68
2024/01/10 00:39:32;;;;;;;19.27;14.63;;;19.40;49.90;;;;;;5022821;28;20393;-67
2024/01/10 00:41:58;;;;;;;19.45;15.35;;;19.40;49.90;;;;;;5024901;28;20109;-68
2024/01/10 00:44:23;;;;;;;18.10;14.23;;;19.40;50.20;;;;;;5020875;28;20045;-67
2024/01/10 00:46:49;;;;;;;17.75;13.70;;;19.40;50.00;;;;;;5022787;28;20036;-67
2024/01/10 00:49:14;;;;;;;18.85;14.55;;;19.40;50.10;;;;;;5023248;28;20091;-67
2024/01/10 00:51:40;;;;;;;19.65;14.80;;;19.40;50.10;;;;;;5021678;28;20136;-68
2024/01/10 00:54:05;;;;;;;19.88;14.98;;;19.40;50.10;;;;;;5023599;28;20037;-68
2024/01/10 00:56:31;;;;;;;18.15;14.27;;;19.30;50.10;;;;;;5024337;28;20163;-68
2024/01/10 00:58:57;;;;;;;22.10;15.02;;;19.30;49.90;;;;;;5022965;28;20029;-68
2024/01/10 01:01:23;;;;;;;19.63;14.63;;;19.40;50.20;;;;;;5025297;28;20391;-65
2024/01/10 01:03:49;;;;;;;17.27;13.38;;;19.30;50.00;;;;;;5024501;28;20030;-67
2024/01/10 01:06:14;;;;;;;18.70;14.30;;;19.20;50.20;;;;;;5028620;28;20038;-69
2024/01/10 01:08:40;;;;;;;20.73;14.25;;;19.20;50.30;;;;;;5028619;28;20120;-67
2024/01/10 01:11:05;;;;;;;21.83;15.15;;;19.10;50.20;;;;;;5028957;28;20032;-67
2024/01/10 01:13:31;;;;;;;17.92;14.25;;;19.00;50.30;;;;;;5024808;28;20049;-67
2024/01/10 01:15:56;;;;;;;18.40;13.68;;;19.00;50.60;;;;;;5014992;28;20049;-69
2024/01/10 01:18:22;;;;;;;17.55;14.05;;;18.90;50.80;;;;;;5028725;28;20052;-67
2024/01/10 01:20:49;;;;;;;17.20;14.73;;;18.80;50.90;;;;;;5025252;28;20042;-68
2024/01/10 01:23:15;;;;;;;17.00;14.23;;;18.70;51.00;;;;;;5029024;28;20488;-68
2024/01/10 01:25:41;;;;;;;16.77;13.30;;;18.70;51.40;;;;;;5024412;28;20045;-68
2024/01/10 01:28:07;;;;;;;16.52;14.15;;;18.60;51.40;;;;;;5024560;28;20558;-70
2024/01/10 01:30:33;;;;;;;17.23;14.05;;;18.50;51.00;;;;;;5027651;28;20087;-68
2024/01/10 01:32:58;;;;;;;20.27;14.60;;;18.50;51.40;;;;;;5023595;28;20713;-67
2024/01/10 01:35:24;;;;;;;17.30;13.65;;;18.40;51.50;;;;;;5025044;28;20056;-67
2024/01/10 01:37:49;;;;;;;19.10;14.65;;;18.50;51.00;;;;;;5033493;28;20025;-69
2024/01/10 01:40:15;;;;;;;17.70;14.25;;;18.50;50.60;;;;;;5027028;28;20030;-70
2024/01/10 01:42:40;;;;;;;19.27;14.60;;;18.60;50.30;;;;;;5027770;28;20040;-67
2024/01/10 01:45:06;;;;;;;17.50;14.43;;;18.60;50.10;;;;;;5027422;28;20032;-68
2024/01/10 01:47:32;;;;;;;17.50;14.30;;;18.70;49.80;;;;;;5017403;28;20025;-69
2024/01/10 01:49:57;;;;;;;18.33;13.95;;;18.80;49.70;;;;;;5027606;28;20030;-69
2024/01/10 01:52:24;;;;;;;18.98;13.75;;;18.80;49.50;;;;;;5027043;28;20021;-68
2024/01/10 01:54:50;;;;;;;16.80;13.57;;;18.90;49.40;;;;;;5013223;28;20645;-68
2024/01/10 01:57:15;;;;;;;16.95;13.68;;;19.00;49.30;;;;;;5028241;28;20121;-68
2024/01/10 01:59:41;;;;;;;19.15;13.50;;;19.00;49.20;;;;;;5025629;28;20025;-62
2024/01/10 02:02:07;;;;;;;15.88;12.98;;;19.10;49.40;;;;;;5027133;28;20404;-68
2024/01/10 02:04:33;;;;;;;18.33;13.40;;;19.10;49.50;;;;;;5026241;28;20061;-67
2024/01/10 02:06:59;;;;;;;16.88;12.60;;;19.10;49.50;;;;;;5027229;28;20037;-68
2024/01/10 02:09:25;;;;;;;15.85;12.70;;;19.20;49.60;;;;;;5026945;28;20036;-68
2024/01/10 02:11:51;;;;;;;18.55;12.48;;;19.20;49.50;;;;;;5028076;28;20523;-68
2024/01/10 02:14:17;;;;;;;15.82;12.63;;;19.20;49.50;;;;;;5026938;28;20082;-68
2024/01/10 02:16:43;;;;;;;15.27;12.65;;;19.30;49.50;;;;;;5024124;28;20033;-67
2024/01/10 02:19:22;;;;;;;17.15;12.13;;;19.30;49.50;;;;;;5025897;28;20078;-69
2024/01/10 02:21:48;;;;;;;16.60;12.45;;;19.40;49.50;;;;;;5025733;28;20640;-67
2024/01/10 02:24:13;;;;;;;16.42;12.05;;;19.40;49.30;;;;;;5025556;28;20032;-66
2024/01/10 02:26:39;;;;;;;16.08;12.05;;;19.50;49.30;;;;;;5026888;28;20531;-67
2024/01/10 02:29:05;;;;;;;16.05;12.07;;;19.50;49.20;;;;;;5027544;28;20041;-68
2024/01/10 02:31:31;;;;;;;17.02;12.25;;;19.50;49.20;;;;;;5027291;28;20045;-68
2024/01/10 02:33:56;;;;;;;15.63;11.65;;;19.60;49.10;;;;;;5027644;28;20021;-68
2024/01/10 02:36:22;;;;;;;14.57;12.07;;;19.60;48.90;;;;;;5026791;28;20040;-68
2024/01/10 02:38:47;;;;;;;16.98;12.57;;;19.70;49.00;;;;;;5025623;28;20064;-69
2024/01/10 02:41:13;;;;;;;14.63;11.98;;;19.80;48.90;;;;;;5027257;28;20076;-69
2024/01/10 02:43:39;;;;;;;12.95;10.85;;;19.80;48.80;;;;;;5026973;28;20583;-68
2024/01/10 02:46:04;;;;;;;14.52;10.68;;;19.80;48.80;;;;;;5024687;28;20396;-69
2024/01/10 02:48:30;;;;;;;16.48;11.77;;;19.90;48.70;;;;;;5023591;28;20036;-68
2024/01/10 02:50:55;;;;;;;14.40;11.27;;;19.90;48.60;;;;;;5024714;28;20030;-63
2024/01/10 02:53:21;;;;;;;13.98;11.15;;;19.90;48.60;;;;;;5022250;28;20044;-68
2024/01/10 02:55:47;;;;;;;12.63;10.73;;;19.90;48.50;;;;;;5025028;28;20062;-68
2024/01/10 02:58:13;;;;;;;13.75;11.20;;;20.00;48.50;;;;;;5022605;28;20025;-68
2024/01/10 03:00:38;;;;;;;11.50;10.18;;;20.00;48.50;;;;;;5020895;28;20420;-69
2024/01/10 03:03:04;;;;;;;15.60;12.13;;;20.00;48.40;;;;;;5024944;28;20057;-69
2024/01/10 03:05:30;;;;;;;13.88;10.82;;;20.00;48.50;;;;;;5023454;28;20045;-68
2024/01/10 03:07:55;;;;;;;13.95;10.98;;;20.00;48.50;;;;;;5026299;28;20053;-68
2024/01/10 03:10:20;;;;;;;12.82;10.98;;;20.00;48.60;;;;;;5023651;28;20037;-68
2024/01/10 03:12:46;;;;;;;12.82;10.20;;;19.90;48.50;;;;;;5024666;28;20414;-68
2024/01/10 03:15:11;;;;;;;11.77;10.07;;;19.80;48.50;;;;;;5025700;28;20044;-68
2024/01/10 03:17:37;;;;;;;14.55;10.68;;;19.80;48.70;;;;;;5029194;28;20498;-69
2024/01/10 03:20:03;;;;;;;15.05;10.75;;;19.80;48.80;;;;;;5024540;28;20033;-69
2024/01/10 03:22:30;;;;;;;14.10;10.95;;;19.70;48.90;;;;;;5025700;28;20037;-68
2024/01/10 03:24:56;;;;;;;12.85;9.88;;;19.60;48.90;;;;;;5025434;28;20075;-69
2024/01/10 03:27:21;;;;;;;13.45;10.35;;;19.60;49.10;;;;;;5013398;28;20033;-70
2024/01/10 03:29:47;;;;;;;12.10;10.10;;;19.60;49.10;;;;;;5026186;28;20084;-69
2024/01/10 03:32:13;;;;;;;14.10;10.10;;;19.60;49.30;;;;;;5009807;28;20028;-68
2024/01/10 03:34:38;;;;;;;13.88;10.48;;;19.50;49.30;;;;;;5025708;28;20111;-68
2024/01/10 03:37:04;;;;;;;12.93;10.13;;;19.50;49.40;;;;;;5028560;28;20536;-68
2024/01/10 03:39:30;;;;;;;13.05;9.77;;;19.40;49.40;;;;;;5027003;28;20530;-68
2024/01/10 03:41:56;;;;;;;11.93;9.75;;;19.40;49.50;;;;;;5029118;28;20028;-70
2024/01/10 03:44:21;;;;;;;13.63;9.30;;;19.40;49.70;;;;;;5013717;28;20025;-69
2024/01/10 03:46:47;;;;;;;10.52;9.43;;;19.30;49.70;;;;;;5030058;28;20025;-69
2024/01/10 03:49:12;;;;;;;12.77;10.18;;;19.20;49.60;;;;;;4998176;28;20056;-67
2024/01/10 03:51:40;;;;;;;11.30;10.10;;;19.20;50.00;;;;;;5024964;28;20044;-69
2024/01/10 03:54:06;;;;;;;11.98;9.18;;;19.20;50.10;;;;;;5008564;28;20132;-69
2024/01/10 03:56:31;;;;;;;11.70;8.98;;;19.10;49.90;;;;;;5025043;28;20112;-67
2024/01/10 03:58:57;;;;;;;10.73;8.82;;;19.10;50.20;;;;;;5027216;28;20088;-69
2024/01/10 04:01:23;;;;;;;12.43;9.65;;;19.10;50.10;;;;;;5024347;28;20564;-69
2024/01/10 04:03:49;;;;;;;13.07;9.60;;;19.00;50.20;;;;;;5026275;28;20133;-69
2024/01/10 04:06:15;;;;;;;11.00;9.45;;;19.00;50.50;;;;;;5008269;28;20123;-69
2024/01/10 04:08:40;;;;;;;11.82;9.50;;;19.00;50.40;;;;;;5021243;28;20456;-69
2024/01/10 04:11:05;;;;;;;11.20;8.95;;;18.90;50.50;;;;;;5027680;28;20416;-69
2024/01/10 04:13:31;;;;;;;11.88;9.20;;;18.90;50.80;;;;;;5026824;28;20041;-67
2024/01/10 04:15:56;;;;;;;11.75;8.95;;;18.90;50.80;;;;;;5027081;28;20068;-67
2024/01/10 04:18:22;;;;;;;10.75;8.98;;;18.80;50.60;;;;;;5022081;28;20068;-68
2024/01/10 04:20:49;;;;;;;11.52;8.77;;;18.90;50.80;;;;;;5011965;28;20463;-68
2024/01/10 04:23:14;;;;;;;10.27;8.43;;;18.80;50.40;;;;;;5025462;28;20052;-69
2024/01/10 04:25:40;;;;;;;10.40;8.07;;;18.90;50.00;;;;;;5021993;28;20912;-67
2024/01/10 04:28:05;;;;;;;10.30;8.30;;;18.80;50.00;;;;;;5020030;28;20037;-68
2024/01/10 04:30:31;;;;;;;10.52;8.00;;;18.80;50.00;;;;;;5021325;28;20117;-68
2024/01/10 04:32:57;;;;;;;11.57;9.20;;;18.80;49.70;;;;;;5025151;28;20037;-69
2024/01/10 04:35:22;;;;;;;10.45;8.20;;;18.80;49.70;;;;;;5024292;28;20038;-68
2024/01/10 04:37:47;;;;;;;11.68;9.18;;;18.80;49.80;;;;;;5024625;28;20048;-68
2024/01/10 04:40:13;;;;;;;11.20;8.80;;;18.80;49.80;;;;;;5023841;28;20022;-68
2024/01/10 04:42:39;;;;;;;10.90;8.60;;;18.80;49.80;;;;;;5020541;28;20029;-69
2024/01/10 04:45:07;;;;;;;9.52;8.48;;;18.80;50.00;;;;;;5024296;28;20022;-68
2024/01/10 04:47:32;;;;;;;9.18;7.82;;;18.80;49.90;;;;;;5023852;28;20029;-68
2024/01/10 04:49:58;;;;;;;10.13;7.43;;;18.80;49.80;;;;;;5024316;28;20492;-69
2024/01/10 04:52:23;;;;;;;10.30;8.30;;;18.80;49.80;;;;;;5024208;28;20028;-70
2024/01/10 04:54:49;;;;;;;10.40;8.52;;;18.90;49.80;;;;;;5023943;28;20059;-68
2024/01/10 04:57:15;;;;;;;10.70;8.60;;;18.90;49.70;;;;;;5021574;28;20056;-68
2024/01/10 04:59:41;;;;;;;10.80;8.18;;;18.90;49.60;;;;;;5023360;28;20026;-68
2024/01/10 05:02:07;;;;;;;11.18;8.45;;;19.00;49.70;;;;;;5025054;28;20022;-68
2024/01/10 05:04:32;;;;;;;10.75;8.57;;;19.00;49.70;;;;;;5024070;28;20028;-68
2024/01/10 05:06:58;;;;;;;10.35;8.35;;;19.00;49.60;;;;;;5025440;28;20416;-69
2024/01/10 05:09:23;;;;;;;10.13;8.15;;;19.00;49.40;;;;;;5024429;28;20032;-69
2024/01/10 05:11:51;;;;;;;10.70;7.85;;;19.10;49.50;;;;;;5024619;28;20041;-69
2024/01/10 05:14:19;;;;;;;10.40;8.50;;;19.10;49.60;;;;;;5025129;28;20514;-68
2024/01/10 05:16:45;;;;;;;10.27;8.00;;;19.10;49.50;;;;;;5022518;28;20547;-69
2024/01/10 05:19:10;;;;;;;11.57;8.60;;;19.10;49.50;;;;;;5024026;28;20037;-68
2024/01/10 05:21:36;;;;;;;8.70;7.35;;;19.10;49.50;;;;;;5030626;28;20040;-69
2024/01/10 05:24:01;;;;;;;11.98;8.18;;;19.10;49.50;;;;;;5014497;28;20029;-68
2024/01/10 05:26:27;;;;;;;9.73;7.82;;;19.20;49.60;;;;;;5023114;28;20129;-69
2024/01/10 05:28:52;;;;;;;11.25;8.13;;;19.20;49.40;;;;;;5009521;28;20060;-68
2024/01/10 05:31:18;;;;;;;11.10;8.23;;;19.20;49.40;;;;;;5023822;28;20029;-68
2024/01/10 05:33:43;;;;;;;10.10;8.18;;;19.20;49.40;;;;;;5022897;28;20025;-68
2024/01/10 05:36:12;;;;;;;9.77;8.15;;;19.20;49.50;;;;;;5022997;28;20026;-68
2024/01/10 05:38:38;;;;;;;8.65;7.28;;;19.20;49.40;;;;;;5022839;28;20034;-70
2024/01/10 05:41:03;;;;;;;9.23;7.85;;;19.20;49.40;;;;;;5022387;28;20030;-69
2024/01/10 05:43:29;;;;;;;9.68;8.07;;;19.20;49.20;;;;;;5019943;28;20037;-70
2024/01/10 05:45:55;;;;;;;11.85;8.15;;;19.20;49.40;;;;;;5022282;28;20051;-69
2024/01/10 05:48:20;;;;;;;9.52;7.70;;;19.20;49.40;;;;;;5021584;28;20060;-69
2024/01/10 05:50:46;;;;;;;8.30;7.32;;;19.20;49.40;;;;;;5024773;28;20045;-69
2024/01/10 05:53:13;;;;;;;9.55;7.80;;;19.20;49.50;;;;;;5026802;28;20057;-68
2024/01/10 05:55:39;;;;;;;9.82;7.93;;;19.20;49.50;;;;;;5023369;28;20040;-68
2024/01/10 05:58:04;;;;;;;9.00;7.68;;;19.20;49.40;;;;;;5027116;28;20033;-69
2024/01/10 06:00:30;;;;;;;9.40;7.53;;;19.20;49.40;;;;;;5024890;28;20033;-68
2024/01/10 06:02:55;;;;;;;9.57;7.45;;;19.20;49.40;;;;;;5024807;28;20566;-69
2024/01/10 06:05:21;;;;;;;10.63;7.68;;;19.20;49.40;;;;;;5008153;28;20125;-69
2024/01/10 06:07:47;;;;;;;10.07;7.90;;;19.20;49.30;;;;;;5024381;28;20033;-69
2024/01/10 06:10:12;;;;;;;9.50;7.53;;;19.30;49.40;;;;;;5024638;28;20396;-70
2024/01/10 06:12:38;;;;;;;9.10;7.53;;;19.30;49.40;;;;;;5013971;28;20033;-69
2024/01/10 06:15:04;;;;;;;10.73;8.30;;;19.30;49.40;;;;;;5025945;28;20116;-68
2024/01/10 06:17:31;;;;;;;10.55;8.25;;;19.30;49.40;;;;;;5026859;28;20037;-70
2024/01/10 06:19:58;;;;;;;10.48;8.25;;;19.30;49.30;;;;;;5026893;28;20026;-68
2024/01/10 06:22:25;;;;;;;10.60;8.00;;;19.30;49.30;;;;;;5026836;28;20094;-69
2024/01/10 06:24:50;;;;;;;10.98;8.38;;;19.30;49.30;;;;;;5016317;28;20033;-68
2024/01/10 06:27:18;;;;;;;9.98;7.75;;;19.30;49.30;;;;;;5027066;28;20021;-68
2024/01/10 06:29:44;;;;;;;12.27;8.38;;;19.30;49.30;;;;;;5025549;28;20040;-69
2024/01/10 06:32:10;;;;;;;11.98;8.73;;;19.40;49.30;;;;;;5027590;28;20033;-67
2024/01/10 06:34:36;;;;;;;11.15;8.18;;;19.40;49.10;;;;;;5025461;28;20060;-68
2024/01/10 06:37:01;;;;;;;13.00;8.52;;;19.40;49.10;;;;;;5026595;28;20061;-69
2024/01/10 06:39:27;;;;;;;12.63;7.97;;;19.40;49.10;;;;;;5025945;28;20080;-69
2024/01/10 06:41:53;;;;;;;11.50;8.35;;;19.40;49.10;;;;;;5025620;28;20026;-69
2024/01/10 06:44:18;;;;;;;9.93;8.45;;;19.40;49.10;;;;;;5027417;28;20562;-69
2024/01/10 06:46:44;;;;;;;11.02;8.13;;;19.30;49.10;;;;;;5025592;28;20504;-69
2024/01/10 06:49:10;;;;;;;11.52;9.07;;;19.20;49.10;;;;;;5026722;28;20029;-70
2024/01/10 06:51:36;;;;;;;12.35;9.27;;;19.20;49.10;;;;;;5022790;28;20113;-68
2024/01/10 06:54:05;;;;;;;13.38;9.63;;;19.10;49.30;;;;;;5025914;28;20113;-69
2024/01/10 06:56:31;;;;;;;11.73;9.20;;;19.00;49.30;;;;;;5023262;28;20040;-69
2024/01/10 06:58:58;;;;;;;13.48;9.57;;;19.00;49.40;;;;;;5024775;28;20038;-69
2024/01/10 07:01:23;;;;;;;11.65;9.45;;;18.90;49.80;;;;;;5028543;28;20562;-69
2024/01/10 07:03:49;;;;;;;14.48;10.55;;;18.80;50.20;;;;;;5007529;28;20034;-68
2024/01/10 07:06:15;;;;;;;14.98;11.52;;;18.70;50.20;;;;;;5021818;28;20040;-69
2024/01/10 07:08:42;;;;;;;20.75;12.27;;;18.70;51.00;;;;;;5025456;28;20040;-69
2024/01/10 07:11:08;;;;;;;21.95;14.00;;;18.60;50.50;;;;;;5025296;28;20562;-69
2024/01/10 07:13:33;;;;;;;21.98;13.77;;;18.50;50.90;;;;;;5024290;28;20037;-67
2024/01/10 07:16:01;;;;;;;22.60;14.38;;;18.40;51.10;;;;;;5024266;28;20495;-69
2024/01/10 07:18:30;;;;;;;25.20;14.85;;;18.50;51.20;;;;;;5022617;28;20037;-68
2024/01/10 07:20:56;;;;;;;24.00;14.45;;;18.50;51.20;;;;;;5025425;28;20102;-68
2024/01/10 07:23:22;;;;;;;22.92;15.55;;;18.50;50.70;;;;;;5024004;28;20512;-67
2024/01/10 07:25:48;;;;;;;26.00;15.82;;;18.60;50.60;;;;;;5024938;28;20072;-67
2024/01/10 07:28:14;;;;;;;26.42;16.00;;;18.60;50.50;;;;;;5012712;28;20071;-69
2024/01/10 07:30:39;;;;;;;25.75;15.65;;;18.60;50.20;;;;;;5023388;28;20052;-69
2024/01/10 07:33:05;;;;;;;21.15;14.38;;;18.70;50.00;;;;;;5025739;28;20021;-70
2024/01/10 07:35:30;;;;;;;21.52;15.35;;;18.80;50.00;;;;;;5026352;28;20104;-69
2024/01/10 07:37:56;;;;;;;22.85;14.98;;;18.80;50.00;;;;;;5014738;28;20108;-66
2024/01/10 07:40:22;;;;;;;24.45;15.65;;;18.80;49.90;;;;;;5024228;28;20056;-68
2024/01/10 07:42:48;;;;;;;27.25;16.52;;;18.80;50.00;;;;;;5023766;28;20041;-69
2024/01/10 07:45:13;;;;;;;24.75;14.88;;;18.80;50.00;;;;;;5024592;28;20404;-70
2024/01/10 07:47:39;;;;;;;24.10;15.52;;;18.80;50.10;;;;;;5023741;28;20052;-70
2024/01/10 07:50:10;;;;;;;20.98;14.43;;;18.80;50.20;;;;;;5025105;28;20032;-69
2024/01/10 07:52:36;;;;;;;23.77;15.52;;;18.80;50.10;;;;;;5022190;28;20036;-70
2024/01/10 07:55:04;;;;;;;23.17;14.27;;;18.80;50.20;;;;;;5009360;28;20034;-68
2024/01/10 07:57:30;;;;;;;21.65;13.02;;;18.80;50.20;;;;;;5024073;28;20108;-70
2024/01/10 07:59:56;;;;;;;24.23;13.65;;;18.80;50.20;;;;;;5025164;28;20459;-69
2024/01/10 08:02:21;;;;;;;17.98;12.27;;;18.70;50.10;;;;;;5009780;28;20041;-71
2024/01/10 08:04:47;;;;;;;23.73;14.95;;;18.70;50.20;;;;;;5024845;28;20037;-69
2024/01/10 08:07:13;;;;;;;22.20;14.38;;;18.70;50.30;;;;;;5025250;28;20037;-70
2024/01/10 08:09:38;;;;;;;18.75;12.43;;;18.70;50.20;;;;;;5022682;28;20558;-68
2024/01/10 08:12:04;;;;;;;19.52;13.70;;;18.70;50.20;;;;;;5021292;28;20122;-70
2024/01/10 08:14:30;;;;;;;19.27;13.10;;;18.70;50.20;;;;;;5024500;28;20041;-70
2024/01/10 08:16:58;;;;;;;20.50;12.77;;;18.70;50.20;;;;;;5023098;28;20030;-69
2024/01/10 08:19:25;;;;;;;19.85;12.20;;;18.70;50.20;;;;;;5025100;28;20033;-69
2024/01/10 08:21:51;;;;;;;18.40;12.30;;;18.70;50.20;;;;;;5014150;28;20048;-70
2024/01/10 08:24:17;;;;;;;16.95;11.48;;;18.70;50.10;;;;;;5023022;28;20026;-70
2024/01/10 08:26:42;;;;;;;17.75;12.25;;;18.70;50.10;;;;;;5024988;28;20045;-70
2024/01/10 08:29:08;;;;;;;15.73;10.50;;;18.70;50.20;;;;;;5000460;28;20443;-70
2024/01/10 08:31:33;;;;;;;16.60;11.32;;;18.70;50.00;;;;;;5021148;28;20034;-69
2024/01/10 08:33:59;;;;;;;15.45;10.50;;;18.70;50.10;;;;;;5023131;28;20022;-67
2024/01/10 08:36:24;;;;;;;16.83;10.88;;;18.80;50.00;;;;;;5024056;28;20561;-70
2024/01/10 08:38:51;;;;;;;20.05;11.80;;;18.80;49.80;;;;;;5016982;28;20030;-69
2024/01/10 08:41:17;;;;;;;15.68;10.27;;;18.80;49.90;;;;;;5024242;28;20029;-69
2024/01/10 08:43:42;;;;;;;16.60;10.10;;;18.80;49.90;;;;;;5022101;28;20040;-70
2024/01/10 08:46:09;;;;;;;15.52;10.45;;;18.80;49.80;;;;;;5022753;28;20788;-69
2024/01/10 08:48:36;;;;;;;14.95;10.23;;;18.90;49.80;;;;;;5021695;28;20389;-70
2024/01/10 08:51:02;;;;;;;14.23;9.93;;;18.80;49.80;;;;;;5021172;28;20053;-69
2024/01/10 08:53:28;;;;;;;15.55;10.23;;;18.80;49.60;;;;;;5011493;28;20606;-69
2024/01/10 08:55:53;;;;;;;14.30;9.63;;;18.90;49.60;;;;;;5003640;28;20056;-69
2024/01/10 08:58:19;;;;;;;13.18;9.25;;;18.90;49.40;;;;;;5021867;28;20028;-70
2024/01/10 09:00:44;;;;;;;13.70;9.32;;;19.00;49.40;;;;;;5021617;28;20037;-69
2024/01/10 09:03:10;;;;;;;13.50;9.43;;;19.00;49.30;;;;;;5023147;28;20045;-68
2024/01/10 09:05:35;;;;;;;12.15;9.50;;;19.10;49.20;;;;;;5020024;28;20041;-69
2024/01/10 09:08:01;;;;;;;14.07;8.95;;;19.10;49.20;;;;;;5020386;28;20072;-69
2024/01/10 09:10:29;;;;;;;13.18;9.10;;;19.20;49.10;;;;;;5009276;28;20139;-69
2024/01/10 09:12:54;;;;;;;11.32;8.90;;;19.20;49.10;;;;;;4994993;28;20034;-68
2024/01/10 09:15:20;;;;;;;11.57;8.30;;;19.20;49.00;;;;;;5002572;28;20102;-68
2024/01/10 09:17:45;;;;;;;12.45;9.15;;;19.30;49.00;;;;;;5005766;28;20029;-70
2024/01/10 09:20:12;;;;;;;10.35;8.25;;;19.40;48.90;;;;;;5021603;28;20037;-68
2024/01/10 09:22:38;;;;;;;14.65;9.05;;;19.40;48.90;;;;;;5021115;28;20452;-70
2024/01/10 09:25:05;;;;;;;12.88;8.18;;;19.50;48.80;;;;;;5026125;28;20029;-69
2024/01/10 09:27:32;;;;;;;12.57;8.45;;;19.50;48.60;;;;;;5025721;28;20116;-69
2024/01/10 09:29:57;;;;;;;11.88;7.95;;;19.60;48.50;;;;;;5006658;28;20041;-70
2024/01/10 09:32:22;;;;;;;11.05;7.45;;;19.60;48.50;;;;;;5025464;28;20684;-68
2024/01/10 09:34:48;;;;;;;11.07;7.80;;;19.70;48.40;;;;;;5025426;28;20088;-69
2024/01/10 09:37:13;;;;;;;9.38;7.00;;;19.70;48.20;;;;;;5025456;28;20506;-69
2024/01/10 09:39:40;;;;;;;11.45;7.28;;;19.80;48.20;;;;;;5025635;28;20087;-69
2024/01/10 09:42:06;;;;;;;10.45;7.05;;;19.90;48.10;;;;;;5026126;28;20039;-68
2024/01/10 09:44:33;;;;;;;11.05;7.20;;;20.00;48.00;;;;;;5025875;28;20041;-69
2024/01/10 09:46:58;;;;;;;9.02;6.55;;;20.10;47.90;;;;;;5025057;28;20037;-69
2024/01/10 09:49:25;;;;;;;9.75;7.28;;;20.10;47.90;;;;;;5023975;28;20026;-70
2024/01/10 09:51:57;;;;;;;14.13;7.85;;;20.10;47.90;;;;;;5026774;28;20072;-68
2024/01/10 09:54:25;;;;;;;9.25;6.93;;;20.20;47.70;;;;;;5028164;28;20240;-67
2024/01/10 09:56:51;;;;;;;12.02;8.38;;;20.20;47.60;;;;;;5023399;28;20079;-69
2024/01/10 09:59:17;;;;;;;9.65;7.43;;;20.30;47.60;;;;;;5024226;28;20037;-67
2024/01/10 10:01:43;;;;;;;10.70;6.90;;;20.30;47.50;;;;;;5026500;28;20072;-67
2024/01/10 10:04:12;;;;;;;11.57;7.20;;;20.40;47.50;;;;;;5025895;28;20124;-70
2024/01/10 10:06:37;;;;;;;10.45;7.10;;;20.30;47.60;;;;;;5026317;28;20450;-70
2024/01/10 10:09:04;;;;;;;8.82;6.90;;;20.30;47.70;;;;;;5025078;28;20033;-71
2024/01/10 10:11:29;;;;;;;7.68;6.15;;;20.40;47.70;;;;;;5023249;28;20025;-69
2024/01/10 10:13:55;;;;;;;9.13;7.18;;;20.40;47.80;;;;;;5024481;28;20060;-71
2024/01/10 10:16:25;;;;;;;9.38;6.30;;;20.40;47.80;;;;;;5023230;28;20029;-68
2024/01/10 10:18:57;;;;;;;8.80;6.80;;;20.30;47.90;;;;;;5018273;28;20046;-68
2024/01/10 10:21:25;;;;;;;8.05;6.25;;;20.30;48.00;;;;;;5026186;28;20041;-69
2024/01/10 10:24:01;;;;;;;8.88;6.55;;;20.30;48.10;;;;;;5008762;28;21345;-69
2024/01/10 10:26:29;;;;;;;8.50;5.72;;;20.30;48.10;;;;;;5023259;28;20048;-70
2024/01/10 10:28:55;;;;;;;8.77;6.43;;;20.20;48.20;;;;;;5024295;28;20048;-69
2024/01/10 10:31:21;;;;;;;7.15;6.05;;;20.30;48.20;;;;;;5022336;28;20025;-65
2024/01/10 10:33:50;;;;;;;7.28;5.88;;;20.20;48.30;;;;;;5021240;28;20048;-69
2024/01/10 10:36:16;;;;;;;7.43;5.85;;;20.10;48.30;;;;;;5023509;28;20033;-68
2024/01/10 10:38:41;;;;;;;7.38;5.63;;;20.10;48.40;;;;;;5021740;28;20045;-69
2024/01/10 10:41:10;;;;;;;7.25;5.50;;;20.10;48.50;;;;;;5023859;28;20040;-71
2024/01/10 10:43:37;;;;;;;7.68;6.40;;;20.10;48.60;;;;;;5022354;28;20033;-69
2024/01/10 10:46:09;;;;;;;7.63;5.93;;;20.00;48.60;;;;;;5023903;28;20104;-69
2024/01/10 10:48:35;;;;;;;6.82;5.68;;;20.00;48.80;;;;;;5022658;28;20026;-70
2024/01/10 10:51:13;;;;;;;9.10;6.00;;;19.90;48.80;;;;;;5019969;28;20128;-69
2024/01/10 10:53:42;;;;;;;7.88;6.15;;;19.80;48.90;;;;;;5018300;28;20483;-69
2024/01/10 10:56:08;;;;;;;11.85;6.10;;;19.80;49.10;;;;;;5021124;28;20033;-68
2024/01/10 10:58:36;;;;;;;7.40;5.90;;;19.70;49.00;;;;;;5022696;28;20031;-70
2024/01/10 11:01:06;;;;;;;7.07;5.25;;;19.60;48.90;;;;;;5023366;28;20045;-69
2024/01/10 11:03:35;;;;;;;8.40;5.57;;;19.60;49.20;;;;;;5024090;28;20039;-67
2024/01/10 11:06:02;;;;;;;7.85;5.95;;;19.50;49.40;;;;;;5011526;28;20129;-67
2024/01/10 11:08:30;;;;;;;6.43;5.18;;;19.40;49.60;;;;;;5010186;28;20087;-68
2024/01/10 11:10:57;;;;;;;9.63;5.72;;;19.30;49.80;;;;;;5026158;28;20041;-68
2024/01/10 11:13:27;;;;;;;8.10;5.63;;;19.30;50.00;;;;;;5022181;28;20629;-67
2024/01/10 11:15:59;;;;;;;8.77;5.53;;;19.10;50.20;;;;;;5024737;28;20044;-70
2024/01/10 11:18:46;;;;;;;6.97;5.60;;;19.10;50.50;;;;;;5025665;28;20091;-62
2024/01/10 11:21:18;;;;;;;7.40;5.05;;;19.00;50.40;;;;;;5024131;28;20041;-68
2024/01/10 11:23:50;;;;;;;7.18;5.57;;;18.90;50.40;;;;;;5024153;28;20523;-68
2024/01/10 11:26:16;;;;;;;8.23;5.63;;;18.80;50.60;;;;;;5020588;28;20109;-68
2024/01/10 11:28:42;;;;;;;7.55;5.25;;;18.90;50.90;;;;;;5022380;28;20060;-69
2024/01/10 11:31:08;;;;;;;5.90;4.60;;;18.90;50.90;;;;;;5025106;28;20173;-69
2024/01/10 11:33:40;;;;;;;6.30;5.13;;;18.80;50.90;;;;;;4999446;28;20029;-67
2024/01/10 11:36:12;;;;;;;7.18;5.45;;;18.90;51.00;;;;;;5021007;28;20543;-69
2024/01/10 11:38:59;;;;;;;7.05;5.03;;;18.80;51.60;;;;;;5022488;28;20480;-69
2024/01/10 11:41:28;;;;;;;8.05;5.70;;;18.80;51.00;;;;;;5023015;28;20037;-68
2024/01/10 11:46:41;;;;;;;8.40;4.50;;;18.80;50.70;;;;;;5023167;28;20052;-68
2024/01/10 11:49:14;;;;;;;6.97;5.13;;;18.80;51.00;;;;;;5022735;28;20056;-69
2024/01/10 11:51:42;;;;;;;5.75;4.90;;;18.70;51.10;;;;;;5023701;28;20040;-69
2024/01/10 11:54:08;;;;;;;6.85;5.25;;;18.70;51.00;;;;;;5025070;28;20506;-68
2024/01/10 11:56:41;;;;;;;5.85;4.85;;;18.70;51.00;;;;;;5022220;28;20026;-70
2024/01/10 11:59:11;;;;;;;5.43;4.68;;;18.70;51.10;;;;;;5015133;28;20021;-69
2024/01/10 12:01:40;;;;;;;6.60;5.43;;;18.60;51.20;;;;;;5016720;28;20025;-68
2024/01/10 12:04:07;;;;;;;6.28;5.10;;;18.70;51.20;;;;;;5023665;28;20554;-69
2024/01/10 12:06:36;;;;;;;6.45;5.05;;;18.70;51.20;;;;;;5022616;28;20040;-68
2024/01/10 12:09:08;;;;;;;6.18;4.93;;;18.70;51.20;;;;;;5024245;28;20025;-69
2024/01/10 12:11:41;;;;;;;7.45;4.95;;;18.70;50.90;;;;;;5024333;28;20033;-68
2024/01/10 12:14:08;;;;;;;5.90;4.47;;;18.70;50.80;;;;;;5013966;28;20046;-71
2024/01/10 12:16:34;;;;;;;5.10;3.88;;;18.70;50.90;;;;;;5003393;28;20488;-70
2024/01/10 12:18:59;;;;;;;6.05;4.60;;;18.80;50.70;;;;;;5023092;28;20116;-68
2024/01/10 12:21:25;;;;;;;7.40;4.57;;;18.80;50.70;;;;;;5014003;28;20076;-68
2024/01/10 12:23:51;;;;;;;5.55;3.97;;;18.80;50.60;;;;;;5023303;28;20045;-67
2024/01/10 12:26:17;;;;;;;6.72;4.93;;;18.80;50.60;;;;;;5021397;28;20126;-68
2024/01/10 12:28:57;;;;;;;7.18;4.75;;;18.90;50.50;;;;;;5010876;28;20037;-70
2024/01/10 12:31:23;;;;;;;6.07;5.00;;;18.90;50.40;;;;;;5007739;28;20048;-68
2024/01/10 12:33:49;;;;;;;7.55;4.38;;;18.90;50.50;;;;;;5020695;28;20041;-64